Time;durP1;ratioP1;P1;durP2;ratioP2;P2;SDS_P1;SDS_P2;PMS_P1;PMS_P2;Temp;Humidity;BMP_temperature;BMP_pressure;BME280_temperature;BME280_humidity;BME280_pressure;Samples;Min_cycle;Max_cycle;Signal;HPM_P1;HPM_P2
2022/04/18 00:02:09;;;;;;;7.05;4.38;;;19.60;37.60;18.70;101816.00;;;;5078285;28;20422;-65
2022/04/18 00:04:55;;;;;;;8.07;4.13;;;19.60;37.60;18.70;101806.00;;;;5080054;28;20273;-65
2022/04/18 00:07:42;;;;;;;7.03;4.40;;;19.60;37.60;18.70;101805.00;;;;5082159;28;20044;-65
2022/04/18 00:10:28;;;;;;;7.78;4.25;;;19.60;37.60;18.70;101798.00;;;;5073583;28;20040;-65
2022/04/18 00:13:14;;;;;;;6.80;4.30;;;19.60;37.50;18.70;101799.00;;;;5087063;28;20051;-65
2022/04/18 00:16:00;;;;;;;7.13;4.53;;;19.60;37.50;18.70;101797.00;;;;5077791;28;20323;-65
2022/04/18 00:18:46;;;;;;;6.90;3.92;;;19.60;37.50;18.70;101799.00;;;;5083250;28;20531;-65
2022/04/18 00:21:32;;;;;;;9.02;4.30;;;19.60;37.60;18.70;101784.00;;;;5082006;28;20043;-65
2022/04/18 00:24:19;;;;;;;8.20;4.53;;;19.60;37.60;18.60;101787.00;;;;5067195;28;20113;-65
2022/04/18 00:27:05;;;;;;;8.05;4.13;;;19.60;37.60;18.60;101786.00;;;;5084180;28;20040;-65
2022/04/18 00:29:51;;;;;;;6.88;4.53;;;19.60;37.60;18.60;101785.00;;;;5078509;28;20048;-65
2022/04/18 00:32:37;;;;;;;8.00;4.80;;;19.50;37.50;18.60;101780.00;;;;5079753;28;20110;-65
2022/04/18 00:35:24;;;;;;;6.82;4.55;;;19.60;37.60;18.60;101771.00;;;;5079795;28;20045;-65
2022/04/18 00:38:10;;;;;;;8.07;4.43;;;19.50;37.60;18.60;101777.00;;;;5087642;28;20059;-65
2022/04/18 00:40:56;;;;;;;7.32;4.40;;;19.50;37.50;18.60;101777.00;;;;5075011;28;20489;-65
2022/04/18 00:43:47;;;;;;;6.22;3.95;;;19.60;37.60;18.60;101775.00;;;;5063425;28;20052;-65
2022/04/18 00:46:33;;;;;;;7.05;4.32;;;19.50;37.50;18.60;101769.00;;;;5061952;28;20119;-65
2022/04/18 00:49:19;;;;;;;7.05;4.47;;;19.50;37.50;18.60;101769.00;;;;5063514;28;20045;-65
2022/04/18 00:52:06;;;;;;;9.05;4.55;;;19.50;37.50;18.60;101766.00;;;;5079760;28;20477;-65
2022/04/18 00:54:54;;;;;;;6.68;4.40;;;19.50;37.50;18.60;101755.00;;;;5049829;28;20036;-65
2022/04/18 00:57:40;;;;;;;6.22;3.92;;;19.50;37.60;18.60;101754.00;;;;5050893;28;20063;-65
2022/04/18 01:00:26;;;;;;;6.63;4.30;;;19.40;37.50;18.60;101751.00;;;;5057702;28;20036;-65
2022/04/18 01:03:12;;;;;;;6.72;4.15;;;19.50;37.60;18.60;101755.00;;;;5083083;28;20044;-65
2022/04/18 01:05:59;;;;;;;6.47;4.35;;;19.50;37.60;18.60;101748.00;;;;5071521;28;20040;-65
2022/04/18 01:08:47;;;;;;;7.50;4.35;;;19.50;37.50;18.60;101746.00;;;;5074141;28;20371;-65
2022/04/18 01:11:51;;;;;;;6.05;3.92;;;19.50;37.60;18.60;101741.00;;;;5072792;28;20385;-65
2022/04/18 01:14:37;;;;;;;5.97;4.20;;;19.50;37.60;18.60;101734.00;;;;5076472;28;20488;-65
2022/04/18 01:17:24;;;;;;;5.95;3.95;;;19.50;37.60;18.60;101734.00;;;;5076938;28;20086;-65
2022/04/18 01:20:10;;;;;;;6.35;4.03;;;19.50;37.60;18.50;101732.00;;;;5072551;28;20143;-65
2022/04/18 01:22:56;;;;;;;7.47;4.15;;;19.50;37.50;18.50;101735.00;;;;5074742;28;20454;-65
2022/04/18 01:28:59;;;;;;;5.28;3.75;;;19.40;37.60;18.50;101733.00;;;;5069964;28;20429;-65
2022/04/18 01:31:45;;;;;;;5.07;4.10;;;19.40;37.50;18.50;101730.00;;;;5083532;28;20044;-65
2022/04/18 01:34:31;;;;;;;8.45;4.28;;;19.40;37.60;18.50;101727.00;;;;5074597;28;20076;-65
2022/04/18 01:37:17;;;;;;;4.82;3.63;;;19.40;37.60;18.50;101738.00;;;;5079057;28;20374;-65
2022/04/18 01:40:04;;;;;;;6.10;3.80;;;19.40;37.60;18.50;101724.00;;;;5078487;28;20094;-65
2022/04/18 01:42:50;;;;;;;6.15;4.35;;;19.40;37.50;18.50;101728.00;;;;5055969;28;20048;-65
2022/04/18 01:45:36;;;;;;;6.53;4.20;;;19.30;37.40;18.50;101726.00;;;;5078648;28;20052;-65
2022/04/18 01:48:22;;;;;;;6.30;4.07;;;19.30;37.50;18.50;101723.00;;;;5081819;28;20055;-65
2022/04/18 01:51:08;;;;;;;5.70;3.58;;;19.40;37.60;18.50;101725.00;;;;5079245;28;20166;-65
2022/04/18 01:53:54;;;;;;;6.22;3.92;;;19.40;37.50;18.50;101721.00;;;;5065897;28;20044;-65
2022/04/18 01:56:41;;;;;;;4.47;3.50;;;19.30;37.50;18.40;101716.00;;;;5057977;28;20490;-65
2022/04/18 01:59:27;;;;;;;6.82;4.13;;;19.30;37.50;18.40;101716.00;;;;5050459;28;20394;-65
2022/04/18 02:02:13;;;;;;;6.25;4.28;;;19.30;37.50;18.40;101716.00;;;;5080221;28;20048;-65
2022/04/18 02:05:00;;;;;;;6.35;4.13;;;19.30;37.50;18.40;101709.00;;;;5076925;28;20071;-65
2022/04/18 02:07:46;;;;;;;5.60;3.60;;;19.30;37.50;18.40;101710.00;;;;5065918;28;20055;-65
2022/04/18 02:10:32;;;;;;;6.10;3.97;;;19.30;37.60;18.40;101704.00;;;;5081610;28;20296;-65
2022/04/18 02:13:19;;;;;;;6.95;3.75;;;19.30;37.50;18.40;101710.00;;;;5075096;28;20073;-65
2022/04/18 02:16:05;;;;;;;4.75;3.33;;;19.30;37.60;18.40;101703.00;;;;5085069;28;20135;-65
2022/04/18 02:18:51;;;;;;;7.05;3.42;;;19.20;37.60;18.40;101710.00;;;;5066059;28;20040;-65
2022/04/18 02:21:37;;;;;;;7.18;4.00;;;19.30;37.60;18.30;101707.00;;;;5086315;28;20040;-65
2022/04/18 02:24:23;;;;;;;5.43;3.35;;;19.20;37.60;18.40;101707.00;;;;5075574;28;20040;-65
2022/04/18 02:27:09;;;;;;;5.50;3.83;;;19.20;37.60;18.30;101709.00;;;;5066969;28;20040;-65
2022/04/18 02:29:55;;;;;;;6.68;4.07;;;19.20;37.60;18.30;101706.00;;;;5080426;28;20446;-65
2022/04/18 02:32:47;;;;;;;4.93;3.30;;;19.20;37.60;18.30;101708.00;;;;5075092;28;20037;-65
2022/04/18 02:35:33;;;;;;;5.85;3.65;;;19.10;37.70;18.30;101713.00;;;;5073927;28;20137;-65
2022/04/18 02:38:19;;;;;;;6.85;4.10;;;19.10;37.70;18.30;101712.00;;;;5057570;28;20441;-65
2022/04/18 02:41:06;;;;;;;4.93;3.42;;;19.10;37.70;18.30;101705.00;;;;5089396;28;20048;-65
2022/04/18 02:43:52;;;;;;;5.43;3.55;;;19.10;37.70;18.30;101716.00;;;;5078524;28;20040;-65
2022/04/18 02:46:38;;;;;;;5.82;4.00;;;19.10;37.70;18.30;101712.00;;;;5080004;28;20039;-65
2022/04/18 02:49:24;;;;;;;7.43;3.88;;;19.10;37.70;18.30;101712.00;;;;5078185;28;20102;-65
2022/04/18 02:52:10;;;;;;;7.88;3.67;;;19.10;37.80;18.30;101702.00;;;;5086937;28;20048;-65
2022/04/18 02:54:56;;;;;;;6.00;3.28;;;19.10;37.90;18.20;101700.00;;;;5080897;28;20105;-66
2022/04/18 02:57:42;;;;;;;5.85;3.40;;;19.10;37.90;18.20;101699.00;;;;5074550;28;20641;-65
2022/04/18 03:00:28;;;;;;;4.38;3.50;;;19.10;37.90;18.20;101693.00;;;;5075872;28;20117;-65
2022/04/18 03:03:14;;;;;;;4.18;3.15;;;19.00;37.80;18.20;101696.00;;;;5080820;28;20044;-65
2022/04/18 03:06:00;;;;;;;4.93;2.90;;;19.00;37.90;18.20;101693.00;;;;5063440;28;20044;-65
2022/04/18 03:08:46;;;;;;;6.13;3.70;;;19.00;37.80;18.20;101690.00;;;;5079338;28;20052;-65
2022/04/18 03:11:32;;;;;;;3.70;2.92;;;19.00;37.90;18.20;101684.00;;;;5084600;28;20393;-65
2022/04/18 03:14:18;;;;;;;4.43;2.83;;;19.00;37.90;18.20;101687.00;;;;5081774;28;20463;-65
2022/04/18 03:17:04;;;;;;;4.78;3.40;;;19.00;38.00;18.20;101678.00;;;;5069346;28;20051;-65
2022/04/18 03:19:52;;;;;;;4.85;3.63;;;19.00;38.00;18.20;101679.00;;;;5076827;28;20052;-65
2022/04/18 03:22:38;;;;;;;4.60;2.88;;;19.00;38.10;18.20;101681.00;;;;5084158;28;20040;-65
2022/04/18 03:25:24;;;;;;;4.65;3.15;;;19.00;38.00;18.20;101679.00;;;;5078542;28;20036;-65
2022/04/18 03:28:11;;;;;;;9.10;3.47;;;19.00;38.00;18.20;101678.00;;;;5085628;28;20032;-65
2022/04/18 03:30:57;;;;;;;5.85;3.50;;;19.00;38.10;18.10;101678.00;;;;5084415;28;20044;-66
2022/04/18 03:33:43;;;;;;;6.30;3.35;;;19.00;38.00;18.10;101669.00;;;;5074933;28;20036;-65
2022/04/18 03:39:52;;;;;;;4.30;3.15;;;18.90;38.00;18.10;101670.00;;;;5073277;28;20056;-65
2022/04/18 03:42:38;;;;;;;5.28;3.72;;;18.90;38.00;18.10;101660.00;;;;5080828;28;20080;-65
2022/04/18 03:45:24;;;;;;;4.70;3.33;;;18.90;38.00;18.10;101657.00;;;;5077930;28;20313;-65
2022/04/18 03:48:11;;;;;;;4.57;3.35;;;18.90;38.10;18.10;101661.00;;;;5082001;28;20078;-65
2022/04/18 03:50:57;;;;;;;4.20;3.05;;;18.90;38.10;18.10;101654.00;;;;5080765;28;20404;-65
2022/04/18 03:53:43;;;;;;;3.75;2.78;;;18.90;38.10;18.10;101653.00;;;;5079064;28;20045;-65
2022/04/18 03:56:29;;;;;;;4.45;3.25;;;19.00;38.20;18.10;101653.00;;;;5079740;28;20043;-65
2022/04/18 03:59:15;;;;;;;4.47;3.00;;;18.90;38.20;18.10;101650.00;;;;5081108;28;20548;-65
2022/04/18 04:02:01;;;;;;;4.38;3.00;;;18.90;38.20;18.10;101646.00;;;;5081442;28;20056;-65
2022/04/18 04:04:47;;;;;;;3.72;3.08;;;18.90;38.20;18.10;101652.00;;;;5064447;28;20391;-65
2022/04/18 04:07:33;;;;;;;3.75;3.00;;;18.90;38.20;18.10;101647.00;;;;5079827;28;20044;-65
2022/04/18 04:10:19;;;;;;;4.40;2.78;;;18.90;38.30;18.10;101649.00;;;;5082787;28;20475;-65
2022/04/18 04:13:06;;;;;;;5.43;2.65;;;18.90;38.30;18.00;101641.00;;;;5080892;28;20059;-65
2022/04/18 04:15:52;;;;;;;4.03;2.80;;;18.90;38.30;18.10;101645.00;;;;5081743;28;20397;-65
2022/04/18 04:18:38;;;;;;;3.95;3.00;;;18.90;38.30;18.00;101636.00;;;;5057576;28;20050;-65
2022/04/18 04:21:24;;;;;;;3.75;2.70;;;18.90;38.30;18.10;101648.00;;;;5084734;28;20125;-65
2022/04/18 04:24:10;;;;;;;4.40;2.78;;;18.90;38.30;18.00;101651.00;;;;5075079;28;20508;-65
2022/04/18 04:26:56;;;;;;;4.75;2.90;;;18.90;38.40;18.00;101645.00;;;;5065452;28;20040;-65
2022/04/18 04:29:42;;;;;;;3.70;2.65;;;18.80;38.30;18.00;101651.00;;;;5064055;28;20048;-65
2022/04/18 04:32:28;;;;;;;3.35;2.60;;;18.90;38.30;18.00;101643.00;;;;5072557;28;20036;-65
2022/04/18 04:35:14;;;;;;;4.10;2.60;;;18.80;38.30;18.00;101650.00;;;;5081953;28;20043;-65
2022/04/18 04:38:01;;;;;;;4.40;2.78;;;18.80;38.30;18.00;101645.00;;;;5078096;28;20040;-65
2022/04/18 04:40:48;;;;;;;3.88;2.78;;;18.90;38.40;18.00;101650.00;;;;5080036;28;20052;-65
2022/04/18 04:43:34;;;;;;;8.35;2.40;;;18.90;38.50;18.00;101640.00;;;;5069950;28;20044;-65
2022/04/18 04:46:20;;;;;;;3.22;2.40;;;18.80;38.50;18.00;101645.00;;;;5065265;28;20110;-65
2022/04/18 04:49:07;;;;;;;5.80;2.75;;;18.80;38.40;18.00;101647.00;;;;5090597;28;20056;-65
2022/04/18 04:51:53;;;;;;;3.25;2.35;;;18.80;38.50;18.00;101644.00;;;;5073222;28;20067;-65
2022/04/18 04:54:39;;;;;;;3.58;2.63;;;18.80;38.40;17.90;101651.00;;;;5072453;28;20035;-65
2022/04/18 04:57:26;;;;;;;3.17;2.25;;;18.80;38.50;18.00;101651.00;;;;5076641;28;20036;-65
2022/04/18 05:00:12;;;;;;;3.37;2.43;;;18.80;38.50;17.90;101650.00;;;;5079680;28;20056;-65
2022/04/18 05:02:58;;;;;;;3.80;2.50;;;18.80;38.50;17.90;101652.00;;;;5081617;28;20033;-65
2022/04/18 05:05:45;;;;;;;4.57;2.67;;;18.80;38.40;17.90;101650.00;;;;5073655;28;20493;-65
2022/04/18 05:08:31;;;;;;;5.30;2.60;;;18.80;38.50;17.90;101655.00;;;;5078300;28;20392;-65
2022/04/18 05:11:17;;;;;;;3.55;2.65;;;18.80;38.50;17.90;101663.00;;;;5076600;28;20042;-65
2022/04/18 05:14:03;;;;;;;3.33;2.05;;;18.70;38.50;17.90;101660.00;;;;5083615;28;20052;-65
2022/04/18 05:16:49;;;;;;;2.33;2.08;;;18.70;38.60;17.90;101656.00;;;;5079572;28;20083;-65
2022/04/18 05:19:35;;;;;;;4.65;2.40;;;18.80;38.60;17.90;101662.00;;;;5075573;28;20053;-65
2022/04/18 05:22:21;;;;;;;3.85;2.65;;;18.70;38.50;17.90;101662.00;;;;5084898;28;20381;-65
2022/04/18 05:25:08;;;;;;;5.05;2.85;;;18.80;38.50;17.90;101666.00;;;;5077618;28;20037;-65
2022/04/18 05:27:54;;;;;;;2.88;2.30;;;18.70;38.50;17.90;101662.00;;;;5082072;28;20040;-65
2022/04/18 05:30:41;;;;;;;4.22;2.20;;;18.80;38.60;17.90;101669.00;;;;5071899;28;20063;-65
2022/04/18 05:33:27;;;;;;;2.63;2.20;;;18.70;38.50;17.90;101671.00;;;;5082495;28;20544;-65
2022/04/18 05:36:13;;;;;;;4.55;2.30;;;18.70;38.60;17.90;101672.00;;;;5084710;28;20392;-65
2022/04/18 05:38:59;;;;;;;2.53;2.10;;;18.80;38.60;17.90;101668.00;;;;5082234;28;20040;-65
2022/04/18 05:41:45;;;;;;;3.63;2.22;;;18.70;38.60;17.90;101669.00;;;;5076804;28;20045;-65
2022/04/18 05:44:35;;;;;;;2.72;2.20;;;18.70;38.60;17.90;101671.00;;;;5082775;28;20039;-66
2022/04/18 05:47:21;;;;;;;3.65;2.03;;;18.70;38.60;17.90;101666.00;;;;5061967;28;20047;-66
2022/04/18 05:50:07;;;;;;;3.00;2.38;;;18.80;38.60;17.90;101671.00;;;;5075580;28;20042;-65
2022/04/18 05:52:54;;;;;;;3.65;2.47;;;18.70;38.60;17.90;101677.00;;;;5078089;28;20401;-65
2022/04/18 05:55:40;;;;;;;3.30;2.17;;;18.80;38.80;18.00;101675.00;;;;5082980;28;20492;-65
2022/04/18 05:58:26;;;;;;;3.67;2.38;;;18.70;38.80;18.00;101665.00;;;;5070159;28;20044;-65
2022/04/18 06:01:12;;;;;;;3.30;2.20;;;18.80;38.80;18.00;101674.00;;;;5079155;28;20047;-65
2022/04/18 06:03:59;;;;;;;3.63;2.65;;;18.80;38.80;18.00;101675.00;;;;5073375;28;20421;-65
2022/04/18 06:06:45;;;;;;;3.80;2.70;;;18.90;38.90;18.00;101670.00;;;;5075006;28;20439;-65
2022/04/18 06:09:31;;;;;;;4.65;2.13;;;18.80;38.80;18.00;101675.00;;;;5073779;28;20040;-65
2022/04/18 06:12:20;;;;;;;2.42;1.85;;;18.80;38.80;18.00;101677.00;;;;5082474;28;20477;-65
2022/04/18 06:15:07;;;;;;;3.63;2.30;;;18.80;38.90;18.00;101677.00;;;;5065896;28;20044;-65
2022/04/18 06:17:53;;;;;;;3.25;2.10;;;18.80;38.90;18.00;101675.00;;;;5076121;28;20037;-65
2022/04/18 06:20:39;;;;;;;3.13;2.30;;;18.90;39.00;18.00;101678.00;;;;5079469;28;20048;-65
2022/04/18 06:23:25;;;;;;;14.13;8.98;;;18.80;38.60;17.90;101667.00;;;;5080408;28;20032;-66
2022/04/18 06:26:11;;;;;;;9.10;5.65;;;18.80;37.50;17.90;101667.00;;;;5071678;28;20044;-66
2022/04/18 06:28:57;;;;;;;11.88;6.65;;;18.80;37.60;17.80;101669.00;;;;5090113;28;20058;-65
2022/04/18 06:31:44;;;;;;;11.57;5.95;;;18.80;37.80;17.80;101672.00;;;;5073957;28;20045;-65
2022/04/18 06:34:30;;;;;;;10.45;6.25;;;18.80;37.90;17.80;101676.00;;;;5085159;28;20052;-65
2022/04/18 06:37:16;;;;;;;8.30;5.13;;;18.80;37.90;17.70;101682.00;;;;5086236;28;20477;-65
2022/04/18 06:40:03;;;;;;;9.30;4.35;;;18.80;37.90;17.70;101688.00;;;;5072996;28;20114;-65
2022/04/18 06:42:50;;;;;;;7.82;4.35;;;18.80;38.00;17.70;101683.00;;;;5082899;28;20580;-65
2022/04/18 06:45:36;;;;;;;7.00;3.53;;;18.70;37.60;17.70;101681.00;;;;5076597;28;20032;-65
2022/04/18 06:48:22;;;;;;;4.57;3.30;;;18.70;37.70;17.60;101685.00;;;;5077325;28;20477;-65
2022/04/18 06:51:08;;;;;;;10.35;3.40;;;18.70;37.30;17.60;101682.00;;;;5088505;28;20539;-65
2022/04/18 06:53:55;;;;;;;6.65;2.80;;;18.70;37.60;17.60;101680.00;;;;5083040;28;20044;-65
2022/04/18 06:56:59;;;;;;;5.45;3.00;;;18.70;37.50;17.60;101681.00;;;;5088502;28;20054;-65
2022/04/18 06:59:46;;;;;;;6.60;2.85;;;18.70;37.60;17.60;101684.00;;;;5078674;28;20040;-65
2022/04/18 07:02:32;;;;;;;6.68;2.92;;;18.60;37.30;17.60;101675.00;;;;5088246;28;20048;-65
2022/04/18 07:05:18;;;;;;;4.35;2.35;;;18.60;37.50;17.60;101674.00;;;;5069495;28;20905;-65
2022/04/18 07:08:05;;;;;;;7.80;3.22;;;18.40;37.50;17.60;101680.00;;;;5086461;28;20040;-65
2022/04/18 07:10:51;;;;;;;5.30;2.80;;;18.60;37.80;17.70;101680.00;;;;5085676;28;20071;-65
2022/04/18 07:13:37;;;;;;;5.30;2.38;;;18.60;37.90;17.70;101668.00;;;;5079891;28;20501;-65
2022/04/18 07:16:23;;;;;;;8.05;2.72;;;18.60;38.00;17.70;101674.00;;;;5096594;28;20040;-65
2022/04/18 07:19:09;;;;;;;6.95;2.80;;;18.60;38.00;17.70;101669.00;;;;5077236;28;20047;-65
2022/04/18 07:21:56;;;;;;;6.15;2.55;;;18.60;38.00;17.80;101669.00;;;;5076654;28;20393;-65
2022/04/18 07:24:42;;;;;;;6.80;2.90;;;18.60;38.10;17.80;101674.00;;;;5080435;28;20048;-65
2022/04/18 07:27:28;;;;;;;4.68;2.38;;;18.70;38.20;17.80;101674.00;;;;5081721;28;20048;-65
2022/04/18 07:30:14;;;;;;;13.38;2.55;;;18.70;37.90;17.80;101668.00;;;;5094112;28;20043;-65
2022/04/18 07:33:00;;;;;;;5.00;2.70;;;18.70;38.00;17.80;101670.00;;;;5079452;28;20083;-65
2022/04/18 07:35:46;;;;;;;3.60;2.15;;;18.70;38.10;17.80;101664.00;;;;5092341;28;20417;-65
2022/04/18 07:38:50;;;;;;;6.13;2.10;;;18.70;38.20;17.90;101662.00;;;;5077224;28;20278;-65
2022/04/18 07:41:37;;;;;;;4.15;2.30;;;18.70;38.30;17.90;101657.00;;;;5084775;28;20178;-66
2022/04/18 07:44:23;;;;;;;3.33;1.88;;;18.80;38.40;17.90;101661.00;;;;5087099;28;20158;-65
2022/04/18 07:47:09;;;;;;;5.45;2.08;;;18.80;38.50;17.90;101658.00;;;;5079464;28;20126;-65
2022/04/18 07:49:55;;;;;;;4.20;2.08;;;18.80;38.50;17.90;101659.00;;;;5090143;28;20071;-65
2022/04/18 07:52:41;;;;;;;4.35;2.35;;;18.70;38.50;17.90;101661.00;;;;5083630;28;20037;-65
2022/04/18 07:55:27;;;;;;;4.18;2.33;;;18.80;38.00;17.90;101657.00;;;;5091811;28;20037;-65
2022/04/18 07:58:13;;;;;;;4.03;2.33;;;18.80;38.30;17.90;101657.00;;;;5097589;28;20032;-65
2022/04/18 08:00:59;;;;;;;4.57;2.10;;;18.90;38.50;17.90;101662.00;;;;5086390;28;20059;-65
2022/04/18 08:03:45;;;;;;;5.15;2.10;;;18.80;38.40;17.90;101662.00;;;;5080464;28;20055;-65
2022/04/18 08:06:32;;;;;;;5.05;1.98;;;18.80;38.50;17.90;101664.00;;;;5054622;28;20078;-65
2022/04/18 08:09:18;;;;;;;5.33;1.90;;;18.90;38.50;18.00;101661.00;;;;5046219;28;20110;-65
2022/04/18 08:12:06;;;;;;;5.38;2.15;;;18.90;38.60;18.00;101663.00;;;;5052885;28;20331;-65
2022/04/18 08:14:52;;;;;;;4.50;2.33;;;18.90;38.50;18.00;101650.00;;;;5016914;28;20049;-65
2022/04/18 08:17:38;;;;;;;4.15;2.30;;;19.00;38.60;18.00;101657.00;;;;5047878;28;20045;-65
2022/04/18 08:20:24;;;;;;;4.68;2.30;;;18.90;38.60;18.00;101656.00;;;;5055430;28;20032;-65
2022/04/18 08:23:10;;;;;;;5.30;2.10;;;18.90;38.60;18.00;101662.00;;;;5021967;28;20069;-65
2022/04/18 08:25:56;;;;;;;4.22;1.98;;;18.90;38.60;18.00;101655.00;;;;5050616;28;20036;-65
2022/04/18 08:28:43;;;;;;;3.25;2.10;;;18.90;38.70;18.00;101657.00;;;;5041666;28;20406;-65
2022/04/18 08:31:29;;;;;;;3.20;2.28;;;18.90;38.60;18.00;101662.00;;;;5039875;28;20138;-65
2022/04/18 08:34:17;;;;;;;2.65;2.00;;;19.00;38.50;18.00;101657.00;;;;5052231;28;20484;-63
2022/04/18 08:37:03;;;;;;;2.92;1.90;;;18.90;38.70;18.00;101652.00;;;;5048533;28;20041;-64
2022/04/18 08:39:49;;;;;;;3.20;2.30;;;19.00;38.60;18.00;101658.00;;;;5054370;28;20547;-64
2022/04/18 08:42:39;;;;;;;4.60;2.00;;;19.00;38.50;18.00;101658.00;;;;5043244;28;20048;-63
2022/04/18 08:45:26;;;;;;;3.55;2.05;;;19.00;38.60;18.00;101652.00;;;;5048919;28;20033;-62
2022/04/18 08:54:26;;;;;;;2.72;1.90;;;19.00;38.30;18.00;101649.00;;;;5015322;28;20082;-63
2022/04/18 08:57:12;;;;;;;2.90;1.90;;;19.00;38.30;18.00;101654.00;;;;5051251;28;20605;-63
2022/04/18 08:59:58;;;;;;;3.67;2.00;;;19.00;38.40;18.00;101646.00;;;;5044627;28;20044;-63
2022/04/18 09:02:44;;;;;;;4.68;2.20;;;18.90;38.50;18.10;101648.00;;;;5049623;28;20048;-63
2022/04/18 09:05:37;;;;;;;4.70;1.60;;;19.00;38.30;18.00;101650.00;;;;5049426;28;20044;-63
2022/04/18 09:08:23;;;;;;;3.03;1.73;;;19.00;38.50;18.10;101654.00;;;;5041616;28;20040;-63
2022/04/18 09:11:10;;;;;;;3.10;1.90;;;19.00;38.30;18.10;101649.00;;;;5045192;28;20137;-63
2022/04/18 09:14:12;;;;;;;6.25;1.92;;;19.00;38.30;18.10;101641.00;;;;5028284;28;20045;-63
2022/04/18 09:16:59;;;;;;;4.60;2.20;;;19.00;38.50;18.10;101643.00;;;;5036097;28;20037;-63
2022/04/18 09:19:45;;;;;;;3.17;1.88;;;19.00;38.60;18.10;101631.00;;;;5045743;28;20111;-63
2022/04/18 09:22:31;;;;;;;2.03;1.60;;;19.00;38.20;18.10;101633.00;;;;5029713;28;20041;-67
2022/04/18 09:25:19;;;;;;;3.97;2.10;;;19.00;38.50;18.10;101633.00;;;;5036515;28;20379;-64
2022/04/18 09:28:06;;;;;;;3.83;1.85;;;19.00;38.50;18.10;101627.00;;;;5042725;28;20478;-64
2022/04/18 09:31:06;;;;;;;1.85;1.67;;;19.10;38.60;18.10;101625.00;;;;5011467;28;20055;-67
2022/04/18 09:33:56;;;;;;;2.50;1.65;;;19.00;38.70;18.10;101619.00;;;;5047681;28;20051;-65
2022/04/18 09:36:42;;;;;;;2.53;1.60;;;19.10;38.50;18.10;101616.00;;;;5049890;28;20044;-63
2022/04/18 09:39:28;;;;;;;2.53;1.60;;;19.10;38.50;18.10;101607.00;;;;5041774;28;20044;-63
2022/04/18 09:42:14;;;;;;;2.10;1.40;;;19.10;38.70;18.10;101616.00;;;;5045985;28;20067;-64
2022/04/18 09:45:01;;;;;;;3.60;1.80;;;19.10;38.70;18.10;101608.00;;;;5026144;28;20064;-64
2022/04/18 09:47:54;;;;;;;3.05;1.75;;;19.10;38.80;18.10;101607.00;;;;5023568;28;20045;-64
2022/04/18 09:53:46;;;;;;;3.70;1.83;;;19.10;38.80;18.10;101612.00;;;;5046277;28;20121;-78
2022/04/18 09:56:32;;;;;;;2.25;1.40;;;19.10;38.70;18.10;101603.00;;;;5008306;28;20033;-64
2022/04/18 09:59:19;;;;;;;2.75;1.60;;;19.10;38.70;18.10;101600.00;;;;5031987;28;20082;-64
2022/04/18 10:02:05;;;;;;;2.60;1.77;;;19.10;38.60;18.10;101605.00;;;;5039021;28;20049;-64
2022/04/18 10:04:52;;;;;;;2.10;1.35;;;19.10;38.60;18.10;101598.00;;;;5047987;28;20044;-64
2022/04/18 10:07:38;;;;;;;3.35;1.63;;;19.10;38.60;18.10;101597.00;;;;5020488;28;20044;-64
2022/04/18 10:10:24;;;;;;;2.63;1.95;;;19.10;38.60;18.10;101593.00;;;;5037224;28;20046;-64
2022/04/18 10:13:10;;;;;;;2.05;1.40;;;19.10;38.50;18.10;101584.00;;;;5018877;28;20045;-64
2022/04/18 10:16:00;;;;;;;2.78;1.58;;;19.10;38.50;18.10;101592.00;;;;5051669;28;20125;-64
2022/04/18 10:18:52;;;;;;;2.25;1.40;;;19.10;38.60;18.10;101587.00;;;;5039719;28;20285;-64
2022/04/18 10:21:38;;;;;;;2.70;1.52;;;19.10;38.60;18.10;101583.00;;;;5021933;28;20060;-64
2022/04/18 10:25:18;;;;;;;2.05;1.40;;;19.10;38.60;18.10;101573.00;;;;5019489;28;20470;-64
2022/04/18 10:28:22;;;;;;;1.45;1.23;;;19.10;38.60;18.10;101573.00;;;;5032623;28;20044;-64
2022/04/18 10:31:45;;;;;;;2.10;1.48;;;19.20;38.70;18.10;101565.00;;;;5034132;28;20727;-64
2022/04/18 10:34:32;;;;;;;1.98;1.35;;;19.20;38.70;18.10;101561.00;;;;5026082;28;20040;-64
2022/04/18 10:37:24;;;;;;;2.28;1.23;;;19.10;38.60;18.10;101563.00;;;;5022532;28;20565;-64
2022/04/18 10:40:11;;;;;;;2.20;1.50;;;19.20;38.70;18.10;101565.00;;;;5041706;28;20065;-64
2022/04/18 10:42:57;;;;;;;2.25;1.52;;;19.20;38.70;18.20;101554.00;;;;5050832;28;20044;-64
2022/04/18 10:45:43;;;;;;;1.77;1.23;;;19.10;38.50;18.20;101547.00;;;;5047910;28;20037;-64
2022/04/18 10:48:37;;;;;;;1.77;1.17;;;19.20;38.60;18.20;101555.00;;;;5037383;28;20052;-64
2022/04/18 10:51:31;;;;;;;1.75;1.13;;;19.10;38.60;18.20;101547.00;;;;5026818;28;20044;-64
2022/04/18 10:54:18;;;;;;;1.65;1.42;;;19.10;38.60;18.20;101548.00;;;;5015382;28;20315;-64
2022/04/18 10:57:11;;;;;;;1.65;1.15;;;19.10;38.60;18.20;101543.00;;;;5038372;28;20045;-64
2022/04/18 10:59:57;;;;;;;1.60;1.40;;;19.20;38.60;18.20;101547.00;;;;5047334;28;20081;-65
2022/04/18 11:02:44;;;;;;;2.28;1.33;;;19.20;38.60;18.20;101535.00;;;;5044933;28;20382;-64
2022/04/18 11:05:36;;;;;;;1.95;1.15;;;19.30;38.60;18.20;101539.00;;;;5026253;28;20041;-64
2022/04/18 11:08:24;;;;;;;2.10;1.30;;;19.20;38.60;18.20;101533.00;;;;5034586;28;20159;-64
2022/04/18 11:11:17;;;;;;;1.52;1.33;;;19.30;38.60;18.20;101532.00;;;;5046341;28;20064;-64
2022/04/18 11:14:23;;;;;;;1.38;1.00;;;19.40;38.70;18.20;101535.00;;;;5011619;28;20064;-66
2022/04/18 11:17:13;;;;;;;2.08;1.02;;;19.30;38.60;18.20;101532.00;;;;5035718;28;20493;-64
2022/04/18 11:20:35;;;;;;;1.48;1.27;;;19.30;38.60;18.20;101532.00;;;;5047713;28;20037;-64
2022/04/18 11:23:27;;;;;;;2.95;1.23;;;19.30;38.60;18.20;101529.00;;;;5038948;28;20518;-64
2022/04/18 11:26:13;;;;;;;2.70;1.23;;;19.30;38.50;18.20;101526.00;;;;5032368;28;20039;-64
2022/04/18 11:28:59;;;;;;;1.58;1.38;;;19.30;38.60;18.20;101518.00;;;;5032646;28;20111;-64
2022/04/18 11:31:45;;;;;;;2.55;1.50;;;19.30;38.60;18.30;101520.00;;;;5014051;28;20044;-64
2022/04/18 11:34:32;;;;;;;1.73;1.10;;;19.40;38.70;18.30;101516.00;;;;5017290;28;20041;-64
2022/04/18 11:37:39;;;;;;;2.55;1.25;;;19.30;38.70;18.20;101522.00;;;;5037556;28;20041;-64
2022/04/18 11:40:25;;;;;;;2.60;1.33;;;19.40;38.70;18.30;101513.00;;;;5019763;28;20068;-64
2022/04/18 11:43:16;;;;;;;2.05;1.20;;;19.40;38.60;18.20;101511.00;;;;5046015;28;20094;-64
2022/04/18 11:46:07;;;;;;;1.75;1.27;;;19.40;38.50;18.30;101511.00;;;;5046321;28;20036;-64
2022/04/18 11:48:54;;;;;;;1.98;1.23;;;19.40;38.60;18.30;101505.00;;;;5032784;28;20049;-64
2022/04/18 11:51:41;;;;;;;1.90;0.90;;;19.40;38.60;18.30;101508.00;;;;5041250;28;20057;-64
2022/04/18 11:54:27;;;;;;;1.17;1.02;;;19.40;38.50;18.30;101503.00;;;;5051169;28;20043;-64
2022/04/18 11:57:14;;;;;;;2.25;1.20;;;19.60;38.60;18.30;101500.00;;;;5039495;28;20045;-64
2022/04/18 12:00:01;;;;;;;1.88;1.05;;;19.50;38.50;18.30;101500.00;;;;5000912;28;20034;-63
2022/04/18 12:08:57;;;;;;;2.70;1.23;;;19.50;38.60;18.30;101490.00;;;;5030416;28;20128;-64
2022/04/18 12:11:43;;;;;;;2.45;1.15;;;19.50;38.60;18.30;101490.00;;;;5024197;28;20043;-64
2022/04/18 12:14:30;;;;;;;1.92;1.00;;;19.50;38.60;18.30;101481.00;;;;5038900;28;20049;-64
2022/04/18 12:17:16;;;;;;;1.92;1.30;;;19.50;38.50;18.30;101475.00;;;;5051320;28;20544;-64
2022/04/18 12:20:23;;;;;;;1.95;1.27;;;19.50;38.60;18.30;101470.00;;;;5037150;28;20498;-64
2022/04/18 12:23:13;;;;;;;2.35;1.20;;;19.50;38.50;18.30;101473.00;;;;5043401;28;20127;-64
2022/04/18 12:26:01;;;;;;;1.48;1.02;;;19.50;38.50;18.40;101468.00;;;;5019195;28;20136;-64
2022/04/18 12:28:47;;;;;;;1.40;0.90;;;19.50;38.50;18.30;101465.00;;;;5035453;28;20391;-64
2022/04/18 12:31:33;;;;;;;1.50;0.98;;;19.60;38.50;18.40;101475.00;;;;5047324;28;20246;-64
2022/04/18 12:34:20;;;;;;;1.63;1.08;;;19.60;38.50;18.40;101464.00;;;;5020818;28;20121;-64
2022/04/18 12:37:06;;;;;;;1.33;1.13;;;19.60;38.50;18.40;101462.00;;;;5023591;28;20380;-64
2022/04/18 12:40:13;;;;;;;1.23;1.10;;;19.60;38.50;18.40;101453.00;;;;5003327;28;20038;-64